Meeker, Louisiana
Current Conditions -  °F | °C
As of 9:53 PM on Tuesday 25 Nov 2014 (Local Time) from KAEX Reporting Station
Clear Clear  
Wind Chill: 33°   Ceiling: Unl
Heat Index: 37°   Visibility: 10mi
Dew Point: 34°   Wind: 5mph
Humidity: 89%   Direction: 120°ESE
Pressure: 30.22"   Gusts: NA
Location:  31.1282°N, 92.3823°W
Report Text: KAEX 260353Z AUTO 12004KT 10SM CLR 03/01 A3022 RMK AO2 SLP238 T00280011
Loading
Personal Weather Stations






























Interactive Weather Map New forecast layout! Learn more

10-Day Weather Forecast

Advertisements
Track Severe Weather on mobile